Time;durP1;ratioP1;P1;durP2;ratioP2;P2;SDS_P1;SDS_P2;PMS_P1;PMS_P2;Temp;Humidity;BMP_temperature;BMP_pressure;BME280_temperature;BME280_humidity;BME280_pressure;Samples;Min_cycle;Max_cycle;Signal;HPM_P1;HPM_P2
2023/06/15 00:02:22;;;;;;;4.20;3.33;;;19.40;99.10;;;;;;5044337;28;20084;-80
2023/06/15 00:04:50;;;;;;;4.82;3.13;;;19.30;99.10;;;;;;5046005;28;20050;-79
2023/06/15 00:07:17;;;;;;;3.97;3.55;;;19.30;99.20;;;;;;5044316;28;20045;-80
2023/06/15 00:09:43;;;;;;;4.97;3.55;;;19.30;99.20;;;;;;5045127;28;20053;-81
2023/06/15 00:12:10;;;;;;;8.43;4.07;;;19.20;99.30;;;;;;5040984;28;20399;-79
2023/06/15 00:14:37;;;;;;;4.60;3.30;;;19.20;99.30;;;;;;5044082;28;20045;-80
2023/06/15 00:17:04;;;;;;;3.65;3.20;;;19.10;99.40;;;;;;5043046;28;20073;-82
2023/06/15 00:19:30;;;;;;;4.13;3.47;;;19.10;99.50;;;;;;5044921;28;20077;-80
2023/06/15 00:21:58;;;;;;;4.93;3.35;;;19.10;99.70;;;;;;5042709;28;20053;-79
2023/06/15 00:24:25;;;;;;;4.65;3.60;;;19.00;99.50;;;;;;5044550;28;20069;-80
2023/06/15 00:26:52;;;;;;;5.53;3.58;;;19.00;99.60;;;;;;5043338;28;20049;-80
2023/06/15 00:29:19;;;;;;;4.50;3.67;;;19.00;99.60;;;;;;5043884;28;20041;-80
2023/06/15 00:31:46;;;;;;;4.20;3.75;;;18.90;99.60;;;;;;5044424;28;20054;-80
2023/06/15 00:34:13;;;;;;;7.13;3.50;;;18.90;99.50;;;;;;5043459;28;20041;-80
2023/06/15 00:36:39;;;;;;;4.82;3.55;;;18.90;99.80;;;;;;5042664;28;20029;-82
2023/06/15 00:39:07;;;;;;;8.75;4.45;;;18.90;99.60;;;;;;5040872;28;20077;-80
2023/06/15 00:41:41;;;;;;;4.80;3.42;;;18.80;99.70;;;;;;5043695;28;20101;-80
2023/06/15 00:44:09;;;;;;;5.38;3.17;;;18.80;99.90;;;;;;5039712;28;20050;-80
2023/06/15 00:46:37;;;;;;;4.72;3.65;;;18.70;99.90;;;;;;5040730;28;20049;-81
2023/06/15 00:49:05;;;;;;;5.65;3.50;;;18.70;99.90;;;;;;5039390;28;20045;-80
2023/06/15 00:51:38;;;;;;;4.05;3.38;;;18.70;99.90;;;;;;5042903;28;20053;-79
2023/06/15 00:54:07;;;;;;;8.93;4.78;;;18.60;99.90;;;;;;5038248;28;20101;-80
2023/06/15 00:56:35;;;;;;;7.78;3.38;;;18.60;99.90;;;;;;5043444;28;20049;-80
2023/06/15 00:59:02;;;;;;;7.63;3.85;;;18.60;99.60;;;;;;5041614;28;20046;-80
2023/06/15 01:01:28;;;;;;;4.78;3.30;;;18.60;99.90;;;;;;5044154;28;20099;-80
2023/06/15 01:03:57;;;;;;;5.28;3.58;;;18.50;99.90;;;;;;5038474;28;20407;-80
2023/06/15 01:06:24;;;;;;;4.63;4.10;;;18.50;99.90;;;;;;5043380;28;20053;-81
2023/06/15 01:08:53;;;;;;;14.00;3.70;;;18.50;99.90;;;;;;5037216;28;20568;-81
2023/06/15 01:11:20;;;;;;;5.43;3.25;;;18.40;99.90;;;;;;5043606;28;20049;-81
2023/06/15 01:13:49;;;;;;;5.78;3.88;;;18.40;99.90;;;;;;5039510;28;20041;-80
2023/06/15 01:16:32;;;;;;;8.02;3.80;;;18.40;99.90;;;;;;5038996;28;20426;-80
2023/06/15 01:19:01;;;;;;;5.07;3.53;;;18.30;99.90;;;;;;5037784;28;20060;-79
2023/06/15 01:21:29;;;;;;;8.45;3.97;;;18.30;99.90;;;;;;5042713;28;20049;-81
2023/06/15 01:24:18;;;;;;;4.45;3.80;;;18.20;99.90;;;;;;5040264;28;20057;-81
2023/06/15 01:26:49;;;;;;;4.03;3.58;;;18.20;99.90;;;;;;5042220;28;20049;-82
2023/06/15 01:29:17;;;;;;;5.38;4.15;;;18.10;99.90;;;;;;5041411;28;20045;-83
2023/06/15 01:31:44;;;;;;;8.85;3.58;;;18.10;99.90;;;;;;5041134;28;20053;-81
2023/06/15 01:34:11;;;;;;;5.70;3.92;;;18.10;99.90;;;;;;5042691;28;20049;-82
2023/06/15 01:36:38;;;;;;;4.97;3.60;;;18.10;99.90;;;;;;5044667;28;20049;-81
2023/06/15 01:39:07;;;;;;;4.18;3.75;;;18.00;99.90;;;;;;5040850;28;20067;-84
2023/06/15 01:41:34;;;;;;;5.30;4.00;;;18.00;99.90;;;;;;5044372;28;20049;-81
2023/06/15 01:44:02;;;;;;;4.47;3.67;;;18.00;99.90;;;;;;5060035;28;20049;-82
2023/06/15 01:46:31;;;;;;;4.30;3.88;;;17.90;99.90;;;;;;5042788;28;20061;-82
2023/06/15 01:48:58;;;;;;;5.65;3.67;;;17.90;99.90;;;;;;5045721;28;20053;-82
2023/06/15 01:51:28;;;;;;;5.57;4.22;;;17.90;99.90;;;;;;5047764;28;20053;-80
2023/06/15 01:53:54;;;;;;;5.65;4.00;;;17.80;99.90;;;;;;5048987;28;20046;-82
2023/06/15 01:56:23;;;;;;;5.03;3.83;;;17.80;99.90;;;;;;5049712;28;20081;-82
2023/06/15 01:58:49;;;;;;;4.65;3.58;;;17.80;99.90;;;;;;5051735;28;20092;-82
2023/06/15 02:01:16;;;;;;;6.93;3.72;;;17.70;99.90;;;;;;5051063;28;20041;-81
2023/06/15 02:03:43;;;;;;;8.35;4.30;;;17.70;99.90;;;;;;5051350;28;20053;-82
2023/06/15 02:06:10;;;;;;;4.75;3.47;;;17.70;99.90;;;;;;5049508;28;20053;-82
2023/06/15 02:08:36;;;;;;;8.30;4.22;;;17.60;99.90;;;;;;5049642;28;20050;-82
2023/06/15 02:11:03;;;;;;;6.75;4.07;;;17.60;99.90;;;;;;5048461;28;20500;-81
2023/06/15 02:13:30;;;;;;;7.22;4.05;;;17.60;99.90;;;;;;5049569;28;20061;-81
2023/06/15 02:15:57;;;;;;;5.18;3.78;;;17.50;99.90;;;;;;5048261;28;20045;-81
2023/06/15 02:18:24;;;;;;;7.00;4.10;;;17.50;99.90;;;;;;5048200;28;20104;-81
2023/06/15 02:20:51;;;;;;;4.70;3.58;;;17.50;99.90;;;;;;5046132;28;20099;-80
2023/06/15 02:23:17;;;;;;;5.72;3.63;;;17.50;99.90;;;;;;5048052;28;20064;-82
2023/06/15 02:25:44;;;;;;;6.38;4.03;;;17.40;99.90;;;;;;5044244;28;20061;-80
2023/06/15 02:28:11;;;;;;;5.70;3.90;;;17.40;99.90;;;;;;5043623;28;20046;-80
2023/06/15 02:30:40;;;;;;;4.30;3.30;;;17.40;99.90;;;;;;5043337;28;20055;-79
2023/06/15 02:33:07;;;;;;;6.05;4.53;;;17.40;99.90;;;;;;5043392;28;20046;-79
2023/06/15 02:35:34;;;;;;;7.40;4.22;;;17.30;99.90;;;;;;5043099;28;20085;-79
2023/06/15 02:38:01;;;;;;;4.15;3.65;;;17.30;99.90;;;;;;5042071;28;20050;-80
2023/06/15 02:40:28;;;;;;;6.97;4.15;;;17.30;99.90;;;;;;5045161;28;20045;-79
2023/06/15 02:42:54;;;;;;;5.05;3.38;;;17.30;99.90;;;;;;5046948;28;20073;-79
2023/06/15 02:45:21;;;;;;;5.15;3.38;;;17.30;99.90;;;;;;5041454;28;20103;-82
2023/06/15 02:47:48;;;;;;;4.68;3.72;;;17.20;99.90;;;;;;5045437;28;20115;-79
2023/06/15 02:50:17;;;;;;;6.63;3.03;;;17.20;99.90;;;;;;5044913;28;20073;-80
2023/06/15 02:52:46;;;;;;;6.40;3.78;;;17.20;99.90;;;;;;5043858;28;20073;-80
2023/06/15 02:55:13;;;;;;;5.82;4.10;;;17.20;99.90;;;;;;5041965;28;20080;-79
2023/06/15 02:57:41;;;;;;;6.78;3.65;;;17.10;99.90;;;;;;5042901;28;20105;-79
2023/06/15 03:00:12;;;;;;;4.60;3.90;;;17.10;99.90;;;;;;5044738;28;20105;-80
2023/06/15 03:02:39;;;;;;;7.82;3.90;;;17.10;99.90;;;;;;5043877;28;20475;-82
2023/06/15 03:05:07;;;;;;;6.47;4.47;;;17.10;99.90;;;;;;5049661;28;20054;-80
2023/06/15 03:07:34;;;;;;;4.72;3.55;;;17.00;99.90;;;;;;5049573;28;20049;-81
2023/06/15 03:10:01;;;;;;;5.82;4.28;;;17.00;99.90;;;;;;5047729;28;20050;-81
2023/06/15 03:12:28;;;;;;;5.07;3.70;;;17.00;99.90;;;;;;5050854;28;20050;-80
2023/06/15 03:14:56;;;;;;;6.68;3.72;;;17.00;99.90;;;;;;5045854;28;20064;-83
2023/06/15 03:17:24;;;;;;;8.85;4.63;;;17.00;99.90;;;;;;5047332;28;20072;-81
2023/06/15 03:19:51;;;;;;;5.45;4.45;;;16.90;99.90;;;;;;5048477;28;20049;-79
2023/06/15 03:22:19;;;;;;;5.80;3.90;;;16.90;99.90;;;;;;5049122;28;20041;-82
2023/06/15 03:24:49;;;;;;;5.82;3.85;;;16.90;99.90;;;;;;5042941;28;20130;-79
2023/06/15 03:27:16;;;;;;;4.82;3.92;;;16.80;99.90;;;;;;5043023;28;20068;-78
2023/06/15 03:29:49;;;;;;;5.68;4.07;;;16.80;99.90;;;;;;5045022;28;20050;-79
2023/06/15 03:32:16;;;;;;;4.80;3.90;;;16.80;99.90;;;;;;5043794;28;20076;-80
2023/06/15 03:34:43;;;;;;;4.65;3.67;;;16.80;99.90;;;;;;5044955;28;20057;-79
2023/06/15 03:37:13;;;;;;;6.43;3.88;;;16.70;99.90;;;;;;5044552;28;20042;-80
2023/06/15 03:39:40;;;;;;;6.18;4.13;;;16.70;99.90;;;;;;5043466;28;20053;-80
2023/06/15 03:42:07;;;;;;;6.13;3.80;;;16.70;99.90;;;;;;5039590;28;20050;-78
2023/06/15 03:44:33;;;;;;;5.63;3.63;;;16.60;99.90;;;;;;5042308;28;20053;-80
2023/06/15 03:47:00;;;;;;;6.07;3.78;;;16.60;99.90;;;;;;5039197;28;20084;-79
2023/06/15 03:49:27;;;;;;;6.78;4.28;;;16.60;99.90;;;;;;5042595;28;20049;-80
2023/06/15 03:51:53;;;;;;;5.13;3.70;;;16.60;99.90;;;;;;5043125;28;20050;-82
2023/06/15 03:54:21;;;;;;;5.28;3.78;;;16.60;99.90;;;;;;5046061;28;20080;-82
2023/06/15 03:56:50;;;;;;;4.60;3.90;;;16.60;99.90;;;;;;5045732;28;20115;-80
2023/06/15 03:59:17;;;;;;;7.18;4.60;;;16.60;99.90;;;;;;5046080;28;20041;-81
2023/06/15 04:01:44;;;;;;;4.47;3.80;;;16.60;99.90;;;;;;5042721;28;20057;-81
2023/06/15 04:04:14;;;;;;;6.13;3.70;;;16.60;99.90;;;;;;5046503;28;20688;-81
2023/06/15 04:06:46;;;;;;;4.68;3.75;;;16.60;99.90;;;;;;5043586;28;20053;-82
2023/06/15 04:09:14;;;;;;;8.90;3.75;;;16.60;99.90;;;;;;5046369;28;20041;-81
2023/06/15 04:11:41;;;;;;;5.72;4.00;;;16.60;99.90;;;;;;5045145;28;20054;-82
2023/06/15 04:14:08;;;;;;;6.25;3.80;;;16.60;99.90;;;;;;5045278;28;20041;-81
2023/06/15 04:16:34;;;;;;;5.97;3.70;;;16.60;99.90;;;;;;5045200;28;20049;-81
2023/06/15 04:19:01;;;;;;;5.55;3.45;;;16.50;99.90;;;;;;5043652;28;20049;-81
2023/06/15 04:21:28;;;;;;;8.38;3.60;;;16.60;99.90;;;;;;5048781;28;20072;-82
2023/06/15 04:23:55;;;;;;;6.05;3.65;;;16.60;99.90;;;;;;5045044;28;20057;-83
2023/06/15 04:26:22;;;;;;;8.02;4.03;;;16.60;99.90;;;;;;5048061;28;20057;-81
2023/06/15 04:28:49;;;;;;;7.63;3.90;;;16.60;99.90;;;;;;5049275;28;20053;-82
2023/06/15 04:31:21;;;;;;;5.70;4.00;;;16.60;99.90;;;;;;5050375;28;20045;-82
2023/06/15 04:33:49;;;;;;;5.38;3.53;;;16.70;99.90;;;;;;5046241;28;20045;-83
2023/06/15 04:36:16;;;;;;;11.73;4.10;;;16.70;99.90;;;;;;5048526;28;20049;-82
2023/06/15 04:38:48;;;;;;;8.18;4.57;;;16.70;99.90;;;;;;5045701;28;20046;-81
2023/06/15 04:41:18;;;;;;;5.15;4.55;;;16.80;99.90;;;;;;5047354;28;20097;-82
2023/06/15 04:43:45;;;;;;;10.80;4.10;;;16.80;99.90;;;;;;5046535;28;20430;-82
2023/06/15 04:46:11;;;;;;;6.88;4.07;;;16.90;99.90;;;;;;5048831;28;20060;-82
2023/06/15 04:48:43;;;;;;;6.15;3.90;;;16.80;99.90;;;;;;5043837;28;20055;-82
2023/06/15 04:51:12;;;;;;;6.88;4.57;;;16.90;99.90;;;;;;5046262;28;20049;-82
2023/06/15 04:53:42;;;;;;;6.85;3.50;;;17.00;99.90;;;;;;5045092;28;20076;-81
2023/06/15 04:56:10;;;;;;;7.47;4.00;;;17.10;99.90;;;;;;5042890;28;20056;-80
2023/06/15 04:58:37;;;;;;;9.18;3.78;;;17.20;99.90;;;;;;5041373;28;20042;-79
2023/06/15 05:01:06;;;;;;;4.90;3.78;;;17.30;99.90;;;;;;5043048;28;20072;-80
2023/06/15 05:03:33;;;;;;;5.90;4.38;;;17.50;99.90;;;;;;5044163;28;20095;-80
2023/06/15 05:06:00;;;;;;;8.52;4.22;;;17.60;99.90;;;;;;5044855;28;20604;-81
2023/06/15 05:08:27;;;;;;;4.90;3.65;;;17.80;99.90;;;;;;5043276;28;20053;-80
2023/06/15 05:10:55;;;;;;;5.57;3.97;;;17.90;99.90;;;;;;5045991;28;20050;-80
2023/06/15 05:13:21;;;;;;;7.32;4.00;;;18.10;99.90;;;;;;5043916;28;20084;-81
2023/06/15 05:15:48;;;;;;;5.97;3.70;;;18.20;99.90;;;;;;5045758;28;20149;-79
2023/06/15 05:18:15;;;;;;;7.32;4.30;;;18.40;99.90;;;;;;5044504;28;20046;-81
2023/06/15 05:20:41;;;;;;;7.93;3.97;;;18.50;99.90;;;;;;5045972;28;20064;-81
2023/06/15 05:23:08;;;;;;;8.13;3.97;;;18.60;99.90;;;;;;5046257;28;20061;-80
2023/06/15 05:25:35;;;;;;;8.35;3.90;;;18.70;99.90;;;;;;5047129;28;20053;-79
2023/06/15 05:28:02;;;;;;;9.27;4.57;;;18.80;99.90;;;;;;5044191;28;20049;-80
2023/06/15 05:30:29;;;;;;;7.22;3.33;;;19.00;99.90;;;;;;5046568;28;20050;-81
2023/06/15 05:32:56;;;;;;;3.78;3.28;;;19.00;99.90;;;;;;5045721;28;20045;-80
2023/06/15 05:35:22;;;;;;;6.07;4.93;;;19.10;99.90;;;;;;5041099;28;20041;-80
2023/06/15 05:37:49;;;;;;;7.63;5.10;;;19.20;99.90;;;;;;5044209;28;20046;-80
2023/06/15 05:40:16;;;;;;;6.05;4.55;;;19.30;99.90;;;;;;5045155;28;20478;-81
2023/06/15 05:42:42;;;;;;;10.10;5.25;;;19.30;99.90;;;;;;5045058;28;20045;-80
2023/06/15 05:45:10;;;;;;;9.50;5.65;;;19.40;99.90;;;;;;5045277;28;20082;-79
2023/06/15 05:47:37;;;;;;;7.85;5.15;;;19.40;99.90;;;;;;5043279;28;20049;-78
2023/06/15 05:50:04;;;;;;;7.10;5.30;;;19.40;99.90;;;;;;5043811;28;20132;-80
2023/06/15 05:52:30;;;;;;;6.90;5.18;;;19.40;99.90;;;;;;5045356;28;20107;-81
2023/06/15 05:54:57;;;;;;;12.23;6.18;;;19.40;99.90;;;;;;5041641;28;20045;-79
2023/06/15 05:57:24;;;;;;;8.45;5.80;;;19.40;99.90;;;;;;5044532;28;20042;-79
2023/06/15 05:59:51;;;;;;;8.23;5.18;;;19.40;99.90;;;;;;5045279;28;20053;-81
2023/06/15 06:02:17;;;;;;;8.70;6.32;;;19.30;99.90;;;;;;5045364;28;20045;-82
2023/06/15 06:04:44;;;;;;;10.13;6.18;;;19.30;99.90;;;;;;5046666;28;20050;-81
2023/06/15 06:07:11;;;;;;;8.27;5.60;;;19.30;99.90;;;;;;5043486;28;20107;-81
2023/06/15 06:09:38;;;;;;;8.23;5.40;;;19.30;99.90;;;;;;5045229;28;20050;-82
2023/06/15 06:12:05;;;;;;;7.05;5.30;;;19.30;99.90;;;;;;5046119;28;20056;-81
2023/06/15 06:14:32;;;;;;;7.32;5.53;;;19.30;99.90;;;;;;5047779;28;20049;-81
2023/06/15 06:16:58;;;;;;;8.98;5.57;;;19.30;99.90;;;;;;5045708;28;20050;-80
2023/06/15 06:19:25;;;;;;;9.63;6.20;;;19.40;99.90;;;;;;5045446;28;20068;-80
2023/06/15 06:21:52;;;;;;;7.28;4.85;;;19.40;99.90;;;;;;5045041;28;20068;-81
2023/06/15 06:24:19;;;;;;;7.88;5.70;;;19.30;99.90;;;;;;5045193;28;20498;-79
2023/06/15 06:26:49;;;;;;;12.93;5.88;;;19.40;99.90;;;;;;5044272;28;20080;-78
2023/06/15 06:29:16;;;;;;;15.88;6.10;;;19.40;99.90;;;;;;5044971;28;20050;-80
2023/06/15 06:31:43;;;;;;;12.13;6.00;;;19.40;99.90;;;;;;5044972;28;20057;-80
2023/06/15 06:34:10;;;;;;;13.43;5.97;;;19.40;99.90;;;;;;5042689;28;20046;-79
2023/06/15 06:36:37;;;;;;;13.32;5.80;;;19.40;99.90;;;;;;5041796;28;20033;-81
2023/06/15 06:39:04;;;;;;;8.65;5.47;;;19.40;99.90;;;;;;5043387;28;20056;-80
2023/06/15 06:41:31;;;;;;;11.75;5.85;;;19.40;99.90;;;;;;5042695;28;20053;-81
2023/06/15 06:43:58;;;;;;;15.70;6.53;;;19.40;99.90;;;;;;5049192;28;20057;-82
2023/06/15 06:46:25;;;;;;;9.20;5.28;;;19.40;99.90;;;;;;5041195;28;20056;-80
2023/06/15 06:48:52;;;;;;;11.70;5.50;;;19.40;99.90;;;;;;5047516;28;20057;-79
2023/06/15 06:51:18;;;;;;;10.95;5.95;;;19.50;99.90;;;;;;5041023;28;20506;-79
2023/06/15 06:53:45;;;;;;;9.18;5.40;;;19.40;99.90;;;;;;5047292;28;20053;-80
2023/06/15 06:56:12;;;;;;;12.65;5.72;;;19.40;99.90;;;;;;5044377;28;20127;-81
2023/06/15 06:58:39;;;;;;;14.70;5.25;;;19.40;99.90;;;;;;5047528;28;20045;-81
2023/06/15 07:01:05;;;;;;;9.35;5.38;;;19.40;99.90;;;;;;5045725;28;20076;-80
2023/06/15 07:03:32;;;;;;;10.75;4.80;;;19.50;99.90;;;;;;5047588;28;20041;-81
2023/06/15 07:05:59;;;;;;;10.35;5.93;;;19.50;99.90;;;;;;5046361;28;20136;-82
2023/06/15 07:08:26;;;;;;;9.60;6.47;;;19.50;99.90;;;;;;5047040;28;20049;-80
2023/06/15 07:10:53;;;;;;;11.90;6.30;;;19.50;99.90;;;;;;5047239;28;20064;-80
2023/06/15 07:13:20;;;;;;;9.77;5.50;;;19.50;99.90;;;;;;5045739;28;20045;-80
2023/06/15 07:15:46;;;;;;;7.90;5.63;;;19.50;99.90;;;;;;5045921;28;20056;-80
2023/06/15 07:18:14;;;;;;;9.00;5.90;;;19.50;99.90;;;;;;5044180;28;20042;-78
2023/06/15 07:20:41;;;;;;;10.05;6.13;;;19.50;99.90;;;;;;5044603;28;20080;-80
2023/06/15 07:23:11;;;;;;;10.65;6.70;;;19.60;99.90;;;;;;5043603;28;20048;-79
2023/06/15 07:25:37;;;;;;;7.38;5.85;;;19.50;99.90;;;;;;5025666;28;20049;-80
2023/06/15 07:28:04;;;;;;;8.75;5.82;;;19.50;99.90;;;;;;5024917;28;20068;-80
2023/06/15 07:30:31;;;;;;;9.60;5.57;;;19.60;99.90;;;;;;5027589;28;20049;-78
2023/06/15 07:32:58;;;;;;;12.73;6.07;;;19.60;99.90;;;;;;5024366;28;20042;-80
2023/06/15 07:35:25;;;;;;;7.20;5.90;;;19.60;99.90;;;;;;5024583;28;20052;-80
2023/06/15 07:37:52;;;;;;;11.20;6.22;;;19.70;99.90;;;;;;5025052;28;20200;-80
2023/06/15 07:40:18;;;;;;;10.77;5.07;;;19.80;99.90;;;;;;5026759;28;20045;-82
2023/06/15 07:42:45;;;;;;;9.20;5.90;;;19.80;99.90;;;;;;5026663;28;20454;-79
2023/06/15 07:45:12;;;;;;;8.93;6.05;;;19.90;99.90;;;;;;5026701;28;20046;-80
2023/06/15 07:47:41;;;;;;;8.98;6.05;;;19.90;99.90;;;;;;5025262;28;20045;-82
2023/06/15 07:50:08;;;;;;;15.07;7.20;;;19.90;99.90;;;;;;5028115;28;20133;-82
2023/06/15 07:52:35;;;;;;;7.78;6.07;;;20.00;99.90;;;;;;5025197;28;20049;-81
2023/06/15 07:55:03;;;;;;;10.65;7.20;;;20.00;99.90;;;;;;5027920;28;20049;-80
2023/06/15 07:57:30;;;;;;;7.07;5.47;;;20.00;99.90;;;;;;5027954;28;20042;-81
2023/06/15 07:59:58;;;;;;;7.40;5.43;;;20.10;99.90;;;;;;5027674;28;20100;-81
2023/06/15 08:02:24;;;;;;;11.70;5.50;;;20.10;99.90;;;;;;5025887;28;20046;-80
2023/06/15 08:04:51;;;;;;;7.18;5.70;;;20.10;99.90;;;;;;5026462;28;20080;-81
2023/06/15 08:07:18;;;;;;;10.52;6.28;;;20.20;99.90;;;;;;5023391;28;20057;-79
2023/06/15 08:09:45;;;;;;;7.90;6.30;;;20.30;99.90;;;;;;5026854;28;20050;-79
2023/06/15 08:12:11;;;;;;;8.63;6.00;;;20.30;99.90;;;;;;5025872;28;20608;-80
2023/06/15 08:14:38;;;;;;;10.73;5.65;;;20.40;99.90;;;;;;5025893;28;20053;-80
2023/06/15 08:17:06;;;;;;;10.70;5.18;;;20.40;99.90;;;;;;5025849;28;20041;-79
2023/06/15 08:19:34;;;;;;;8.73;5.38;;;20.50;99.90;;;;;;5026398;28;20116;-81
2023/06/15 08:22:02;;;;;;;7.55;5.97;;;20.60;99.90;;;;;;5026954;28;20072;-79
2023/06/15 08:24:29;;;;;;;8.18;5.35;;;20.60;99.90;;;;;;5027761;28;20102;-79
2023/06/15 08:26:56;;;;;;;7.25;5.55;;;20.60;99.70;;;;;;5025699;28;20049;-80
2023/06/15 08:29:22;;;;;;;6.93;5.78;;;20.70;99.80;;;;;;5025602;28;20057;-80
2023/06/15 08:31:51;;;;;;;10.60;5.35;;;20.70;99.70;;;;;;5027310;28;20042;-82
2023/06/15 08:34:18;;;;;;;9.38;5.30;;;20.70;99.80;;;;;;5026863;28;20569;-80
2023/06/15 08:36:46;;;;;;;8.52;4.88;;;20.70;99.90;;;;;;5022618;28;20056;-81
2023/06/15 08:39:13;;;;;;;7.47;4.80;;;20.80;99.80;;;;;;5027560;28;20089;-80
2023/06/15 08:41:39;;;;;;;7.88;5.05;;;20.80;99.60;;;;;;5027382;28;20129;-80
2023/06/15 08:44:07;;;;;;;10.73;4.97;;;20.90;99.90;;;;;;5024168;28;20042;-81
2023/06/15 08:46:34;;;;;;;8.57;5.28;;;20.90;99.70;;;;;;5028458;28;20050;-81
2023/06/15 08:49:02;;;;;;;13.10;5.22;;;21.00;99.90;;;;;;5026383;28;20072;-79
2023/06/15 08:51:29;;;;;;;7.38;5.40;;;21.00;99.60;;;;;;5026165;28;20045;-80
2023/06/15 08:53:57;;;;;;;10.60;6.60;;;21.00;99.90;;;;;;5025241;28;20076;-80
2023/06/15 08:56:26;;;;;;;8.50;5.78;;;21.00;99.60;;;;;;5026169;28;20049;-81
2023/06/15 08:58:53;;;;;;;11.10;5.38;;;21.00;99.30;;;;;;5024723;28;20129;-81
2023/06/15 09:01:22;;;;;;;10.10;5.40;;;21.00;99.60;;;;;;5025289;28;20141;-80
2023/06/15 09:03:54;;;;;;;9.70;4.78;;;21.10;99.90;;;;;;5024577;28;20045;-79
2023/06/15 09:06:22;;;;;;;9.07;4.75;;;21.10;99.90;;;;;;5024427;28;20054;-84
2023/06/15 09:08:51;;;;;;;10.30;5.25;;;21.10;99.60;;;;;;5024294;28;20052;-79
2023/06/15 09:11:18;;;;;;;11.88;5.63;;;21.20;99.60;;;;;;5024191;28;20042;-80
2023/06/15 09:13:48;;;;;;;8.85;5.57;;;21.20;99.20;;;;;;5025243;28;20052;-79
2023/06/15 09:16:15;;;;;;;12.20;5.30;;;21.20;99.20;;;;;;5024988;28;20042;-81
2023/06/15 09:18:49;;;;;;;8.75;5.60;;;21.30;99.40;;;;;;5023753;28;20073;-81
2023/06/15 09:21:17;;;;;;;12.18;5.60;;;21.30;99.10;;;;;;5023277;28;20050;-79
2023/06/15 09:23:46;;;;;;;9.57;5.53;;;21.30;99.00;;;;;;5024369;28;20050;-80
2023/06/15 09:26:24;;;;;;;9.60;5.53;;;21.40;99.00;;;;;;5026664;28;20109;-81
2023/06/15 09:28:55;;;;;;;8.52;5.45;;;21.40;98.80;;;;;;5022222;28;20060;-81
2023/06/15 09:31:31;;;;;;;;;;;21.50;99.30;;;;;;5022388;28;20050;-82
2023/06/15 09:34:06;;;;;;;11.77;4.25;;;21.50;99.40;;;;;;5024421;28;19948;-81
2023/06/15 09:36:48;;;;;;;12.60;5.10;;;21.60;99.30;;;;;;5025511;28;20050;-81
2023/06/15 09:39:25;;;;;;;13.32;6.35;;;21.70;98.90;;;;;;5020912;28;20046;-81
2023/06/15 09:41:57;;;;;;;11.90;5.30;;;21.70;98.40;;;;;;5024925;28;20068;-82
2023/06/15 09:44:25;;;;;;;14.60;6.03;;;21.70;98.90;;;;;;5021017;28;20046;-80
2023/06/15 09:46:56;;;;;;;10.90;5.47;;;21.80;98.30;;;;;;5025973;28;20050;-80
2023/06/15 09:49:25;;;;;;;;;;;21.80;98.10;;;;;;5024701;28;20490;-81
2023/06/15 09:51:53;;;;;;;11.48;5.00;;;21.90;97.90;;;;;;5026018;28;19926;-80
2023/06/15 09:54:23;;;;;;;9.85;5.75;;;21.90;98.00;;;;;;5023104;28;20046;-81
2023/06/15 09:56:52;;;;;;;10.95;5.85;;;22.00;97.50;;;;;;5024047;28;20076;-81
2023/06/15 09:59:20;;;;;;;10.13;5.95;;;22.00;97.70;;;;;;5025701;28;20097;-80
2023/06/15 10:01:48;;;;;;;8.70;5.40;;;22.00;97.20;;;;;;5037192;23;20124;-74
2023/06/15 10:04:20;;;;;;;8.75;4.72;;;22.00;97.40;;;;;;4991347;28;20045;-76
2023/06/15 10:06:55;;;;;;;9.93;5.07;;;22.00;97.40;;;;;;4986935;28;20092;-75
2023/06/15 10:09:28;;;;;;;9.60;4.90;;;22.10;97.10;;;;;;4992217;28;20418;-76
2023/06/15 10:12:05;;;;;;;7.35;5.18;;;22.10;96.60;;;;;;5011578;28;20042;-75
2023/06/15 10:14:37;;;;;;;10.85;5.50;;;22.20;96.30;;;;;;5008099;28;20050;-75
2023/06/15 10:17:08;;;;;;;7.78;4.45;;;22.20;95.90;;;;;;5014053;28;20053;-76
2023/06/15 10:19:40;;;;;;;8.60;4.47;;;22.20;96.00;;;;;;5012266;28;20074;-76
2023/06/15 10:22:14;;;;;;;8.10;4.82;;;22.30;95.70;;;;;;5013436;28;20117;-75
2023/06/15 10:24:43;;;;;;;7.10;4.80;;;22.30;95.40;;;;;;5013007;28;20100;-75
2023/06/15 10:27:10;;;;;;;7.28;4.40;;;22.30;96.40;;;;;;5014354;28;20451;-75
2023/06/15 10:29:56;;;;;;;8.48;4.90;;;22.40;97.00;;;;;;5014361;28;20133;-76
2023/06/15 10:32:48;;;;;;;9.02;5.25;;;22.40;96.90;;;;;;5013012;28;20069;-76
2023/06/15 10:35:31;;;;;;;12.23;5.72;;;22.50;97.10;;;;;;5011374;28;20422;-76
2023/06/15 10:38:20;;;;;;;8.40;4.63;;;22.60;96.70;;;;;;5004303;28;20100;-76
2023/06/15 10:40:48;;;;;;;8.90;5.07;;;22.60;96.00;;;;;;5027259;28;20050;-76
2023/06/15 10:43:19;;;;;;;7.05;4.78;;;22.70;96.50;;;;;;5014118;28;20073;-75
2023/06/15 10:45:47;;;;;;;8.82;4.80;;;22.70;96.20;;;;;;5004751;28;20050;-75
2023/06/15 10:48:22;;;;;;;6.95;4.25;;;22.80;95.60;;;;;;5016501;28;20481;-76
2023/06/15 10:50:52;;;;;;;7.43;3.95;;;22.90;95.50;;;;;;5027893;28;20080;-75
2023/06/15 10:53:24;;;;;;;6.70;4.90;;;22.90;94.80;;;;;;5014044;28;20053;-76
2023/06/15 10:55:56;;;;;;;8.10;3.45;;;22.90;95.10;;;;;;5012854;28;20042;-75
2023/06/15 10:58:26;;;;;;;7.90;3.83;;;22.90;94.40;;;;;;5009115;28;20050;-75
2023/06/15 11:01:07;;;;;;;6.45;4.22;;;22.90;94.30;;;;;;5009645;28;20191;-76
2023/06/15 11:03:35;;;;;;;9.70;3.83;;;23.00;94.60;;;;;;5013523;28;20495;-76
2023/06/15 11:06:07;;;;;;;7.50;4.32;;;23.00;94.20;;;;;;5012713;28;20046;-76
2023/06/15 11:08:49;;;;;;;14.85;4.13;;;23.10;95.20;;;;;;5013666;28;20100;-75
2023/06/15 11:11:19;;;;;;;6.35;4.35;;;23.10;95.10;;;;;;5003898;28;20108;-76
2023/06/15 11:14:02;;;;;;;7.68;3.92;;;23.10;96.00;;;;;;5013624;28;20530;-76
2023/06/15 11:16:31;;;;;;;7.38;4.30;;;23.20;96.00;;;;;;5013147;28;20049;-75
2023/06/15 11:19:10;;;;;;;8.30;4.28;;;23.30;95.90;;;;;;5013367;28;20038;-75
2023/06/15 11:21:40;;;;;;;8.85;4.18;;;23.30;95.50;;;;;;5012464;28;20048;-76
2023/06/15 11:24:07;;;;;;;5.07;3.88;;;23.40;95.40;;;;;;5012882;28;20069;-76
2023/06/15 11:26:40;;;;;;;8.85;3.75;;;23.40;95.10;;;;;;5011743;28;20046;-75
2023/06/15 11:29:09;;;;;;;6.20;3.38;;;23.40;95.20;;;;;;5012398;28;20077;-76
2023/06/15 11:31:39;;;;;;;7.60;4.07;;;23.40;94.40;;;;;;5013321;28;20096;-76
2023/06/15 11:34:10;;;;;;;6.55;3.50;;;23.40;94.40;;;;;;5012162;28;20050;-75
2023/06/15 11:36:37;;;;;;;7.45;3.47;;;23.40;94.40;;;;;;5012246;28;20054;-75
2023/06/15 11:39:07;;;;;;;8.10;3.90;;;23.40;94.50;;;;;;5013290;28;20132;-75
2023/06/15 11:41:34;;;;;;;5.33;3.97;;;23.50;94.20;;;;;;5013097;28;20132;-75
2023/06/15 11:44:01;;;;;;;5.32;3.35;;;23.50;93.80;;;;;;5012172;28;20054;-76
2023/06/15 11:46:28;;;;;;;13.48;3.92;;;23.60;93.70;;;;;;5012305;28;20050;-76
2023/06/15 11:48:56;;;;;;;6.03;3.90;;;23.60;94.00;;;;;;5012846;28;20105;-76
2023/06/15 11:51:23;;;;;;;6.57;3.67;;;23.60;94.30;;;;;;5012953;28;20085;-76
2023/06/15 11:53:52;;;;;;;6.88;4.13;;;23.60;94.80;;;;;;5013023;28;20092;-76
2023/06/15 11:56:20;;;;;;;12.73;4.38;;;23.70;94.10;;;;;;5010401;28;20427;-76
2023/06/15 11:58:48;;;;;;;5.65;3.70;;;23.70;93.80;;;;;;5011420;28;20518;-76
2023/06/15 12:01:16;;;;;;;4.20;3.22;;;23.80;93.80;;;;;;5011709;28;20050;-76
2023/06/15 12:03:51;;;;;;;8.38;3.70;;;23.80;93.10;;;;;;5012708;28;20038;-76
2023/06/15 12:06:21;;;;;;;9.95;3.80;;;23.90;93.30;;;;;;5010438;28;20088;-75
2023/06/15 12:08:50;;;;;;;6.18;3.78;;;23.90;92.30;;;;;;5012068;28;20042;-75
2023/06/15 12:11:23;;;;;;;10.25;3.50;;;24.00;92.30;;;;;;5012806;28;20118;-75
2023/06/15 12:13:50;;;;;;;4.65;3.50;;;24.00;92.80;;;;;;5012750;28;20096;-76
2023/06/15 12:16:18;;;;;;;9.13;4.10;;;24.00;92.40;;;;;;5011192;28;20399;-75
2023/06/15 12:18:58;;;;;;;6.45;3.42;;;24.00;92.60;;;;;;5012508;28;20476;-76
2023/06/15 12:21:30;;;;;;;8.50;3.40;;;24.10;92.80;;;;;;5010945;28;20068;-76
2023/06/15 12:23:57;;;;;;;4.70;3.67;;;24.10;93.40;;;;;;5025650;28;20498;-76
2023/06/15 12:26:32;;;;;;;7.63;3.25;;;24.10;92.70;;;;;;5011061;28;20081;-76
2023/06/15 12:29:12;;;;;;;6.22;3.80;;;24.10;93.40;;;;;;5011887;28;20056;-76
2023/06/15 12:31:41;;;;;;;9.50;3.33;;;24.20;92.70;;;;;;5011436;28;20053;-76
2023/06/15 12:34:09;;;;;;;6.35;3.65;;;24.30;92.50;;;;;;5009522;28;20138;-76
2023/06/15 12:36:40;;;;;;;4.13;3.67;;;24.30;92.50;;;;;;5007785;28;20125;-75
2023/06/15 12:39:11;;;;;;;5.63;3.38;;;24.40;92.80;;;;;;5008604;28;20142;-76
2023/06/15 12:41:41;;;;;;;5.75;3.65;;;24.40;92.90;;;;;;5012074;28;20042;-75
2023/06/15 12:44:08;;;;;;;;;;;24.50;93.40;;;;;;5012779;28;20149;-76
2023/06/15 12:46:39;;;;;;;7.47;3.47;;;24.50;92.40;;;;;;5011903;28;20406;-76
2023/06/15 12:49:08;;;;;;;5.00;3.25;;;24.60;92.40;;;;;;5008775;28;20041;-77
2023/06/15 12:51:37;;;;;;;5.35;3.60;;;24.60;92.20;;;;;;5010801;28;20053;-76
2023/06/15 12:54:05;;;;;;;9.27;2.97;;;24.70;92.10;;;;;;5008670;28;20119;-77